sensor_id;sensor_type;location;lat;lon;timestamp;pressure;altitude;pressure_sealevel;temperature;humidity
42847;BME280;28495;49.916;14.536;2023-01-28T00:02:56;97324.91;;;-0.33;76.16
42847;BME280;28495;49.916;14.536;2023-01-28T00:08:16;97321.69;;;-0.38;76.41
42847;BME280;28495;49.916;14.536;2023-01-28T00:13:38;97304.28;;;-0.29;76.38
42847;BME280;28495;49.916;14.536;2023-01-28T00:18:58;97307.75;;;-0.31;76.27
42847;BME280;28495;49.916;14.536;2023-01-28T00:24:19;97313.84;;;-0.33;76.16
42847;BME280;28495;49.916;14.536;2023-01-28T00:29:40;97316.63;;;-0.39;76.39
42847;BME280;28495;49.916;14.536;2023-01-28T00:35:00;97316.72;;;-0.42;76.39
42847;BME280;28495;49.916;14.536;2023-01-28T00:40:21;97310.72;;;-0.41;76.73
42847;BME280;28495;49.916;14.536;2023-01-28T00:45:42;97310.06;;;-0.47;76.41
42847;BME280;28495;49.916;14.536;2023-01-28T00:51:03;97318.81;;;-0.52;76.54
42847;BME280;28495;49.916;14.536;2023-01-28T00:56:24;97325.31;;;-0.43;76.78
42847;BME280;28495;49.916;14.536;2023-01-28T01:01:45;97325.09;;;-0.37;76.53
42847;BME280;28495;49.916;14.536;2023-01-28T01:07:06;97326.81;;;-0.38;76.48
42847;BME280;28495;49.916;14.536;2023-01-28T01:12:27;97330.44;;;-0.43;76.32
42847;BME280;28495;49.916;14.536;2023-01-28T01:17:48;97328.38;;;-0.34;77.01
42847;BME280;28495;49.916;14.536;2023-01-28T01:23:10;97327.94;;;-0.23;76.92
42847;BME280;28495;49.916;14.536;2023-01-28T01:28:33;97330.75;;;-0.29;76.21
42847;BME280;28495;49.916;14.536;2023-01-28T01:33:54;97332.47;;;-0.29;76.51
42847;BME280;28495;49.916;14.536;2023-01-28T01:39:15;97338.78;;;-0.38;76.39
42847;BME280;28495;49.916;14.536;2023-01-28T01:50:39;97342.13;;;-0.36;76.60
42847;BME280;28495;49.916;14.536;2023-01-28T01:56:04;97342.06;;;-0.35;76.71
42847;BME280;28495;49.916;14.536;2023-01-28T02:01:28;97340.56;;;-0.40;76.12
42847;BME280;28495;49.916;14.536;2023-01-28T02:06:51;97346.28;;;-0.56;76.13
42847;BME280;28495;49.916;14.536;2023-01-28T02:12:13;97353.25;;;-0.59;76.36
42847;BME280;28495;49.916;14.536;2023-01-28T02:17:37;97355.09;;;-0.63;76.40
42847;BME280;28495;49.916;14.536;2023-01-28T02:23:20;97351.56;;;-0.60;76.47
42847;BME280;28495;49.916;14.536;2023-01-28T02:28:48;97356.59;;;-0.57;76.79
42847;BME280;28495;49.916;14.536;2023-01-28T02:34:35;97348.19;;;-0.61;76.99
42847;BME280;28495;49.916;14.536;2023-01-28T02:40:05;97354.66;;;-0.52;76.72
42847;BME280;28495;49.916;14.536;2023-01-28T02:45:32;97360.75;;;-0.55;76.60
42847;BME280;28495;49.916;14.536;2023-01-28T03:02:46;97370.47;;;-0.63;76.60
42847;BME280;28495;49.916;14.536;2023-01-28T03:08:13;97364.31;;;-0.59;76.94
42847;BME280;28495;49.916;14.536;2023-01-28T03:13:54;97359.66;;;-0.48;76.63
42847;BME280;28495;49.916;14.536;2023-01-28T03:19:33;97353.91;;;-0.54;76.72
42847;BME280;28495;49.916;14.536;2023-01-28T03:25:14;97354.66;;;-0.52;76.61
42847;BME280;28495;49.916;14.536;2023-01-28T03:31:08;97361.97;;;-0.41;76.79
42847;BME280;28495;49.916;14.536;2023-01-28T03:36:51;97357.88;;;-0.45;76.34
42847;BME280;28495;49.916;14.536;2023-01-28T03:42:39;97365.50;;;-0.44;76.77
42847;BME280;28495;49.916;14.536;2023-01-28T03:48:25;97353.75;;;-0.50;76.29
42847;BME280;28495;49.916;14.536;2023-01-28T03:53:47;97362.44;;;-0.54;76.61
42847;BME280;28495;49.916;14.536;2023-01-28T03:59:08;97373.09;;;-0.42;77.02
42847;BME280;28495;49.916;14.536;2023-01-28T04:04:29;97367.75;;;-0.36;76.73
42847;BME280;28495;49.916;14.536;2023-01-28T04:09:52;97384.63;;;-0.31;76.85
42847;BME280;28495;49.916;14.536;2023-01-28T04:15:28;97383.94;;;-0.34;76.74
42847;BME280;28495;49.916;14.536;2023-01-28T04:20:51;97383.84;;;-0.33;76.77
42847;BME280;28495;49.916;14.536;2023-01-28T04:26:12;97383.16;;;-0.36;76.46
42847;BME280;28495;49.916;14.536;2023-01-28T04:31:33;97377.72;;;-0.28;76.97
42847;BME280;28495;49.916;14.536;2023-01-28T04:37:17;97386.13;;;-0.25;76.64
42847;BME280;28495;49.916;14.536;2023-01-28T04:42:57;97388.28;;;-0.36;76.63
42847;BME280;28495;49.916;14.536;2023-01-28T04:48:38;97395.06;;;-0.59;76.33
42847;BME280;28495;49.916;14.536;2023-01-28T04:54:15;97393.34;;;-0.58;76.68
42847;BME280;28495;49.916;14.536;2023-01-28T04:59:36;97390.69;;;-0.55;77.01
42847;BME280;28495;49.916;14.536;2023-01-28T05:04:58;97389.63;;;-0.50;77.01
42847;BME280;28495;49.916;14.536;2023-01-28T05:10:48;97390.44;;;-0.49;77.14
42847;BME280;28495;49.916;14.536;2023-01-28T05:16:10;97407.31;;;-0.43;76.94
42847;BME280;28495;49.916;14.536;2023-01-28T05:21:30;97398.81;;;-0.44;76.87
42847;BME280;28495;49.916;14.536;2023-01-28T05:26:55;97400.66;;;-0.48;76.74
42847;BME280;28495;49.916;14.536;2023-01-28T05:32:16;97401.44;;;-0.45;76.71
42847;BME280;28495;49.916;14.536;2023-01-28T05:37:37;97404.72;;;-0.42;76.88
42847;BME280;28495;49.916;14.536;2023-01-28T05:42:59;97408.66;;;-0.57;76.69
42847;BME280;28495;49.916;14.536;2023-01-28T05:48:46;97414.56;;;-0.55;77.14
42847;BME280;28495;49.916;14.536;2023-01-28T05:54:27;97411.81;;;-0.50;77.32
42847;BME280;28495;49.916;14.536;2023-01-28T05:59:49;97418.41;;;-0.43;77.35
42847;BME280;28495;49.916;14.536;2023-01-28T06:05:10;97410.75;;;-0.44;76.92
42847;BME280;28495;49.916;14.536;2023-01-28T06:10:31;97415.13;;;-0.47;77.07
42847;BME280;28495;49.916;14.536;2023-01-28T06:15:52;97416.06;;;-0.49;77.01
42847;BME280;28495;49.916;14.536;2023-01-28T06:21:19;97424.25;;;-0.63;76.84
42847;BME280;28495;49.916;14.536;2023-01-28T06:26:40;97423.38;;;-0.62;77.17
42847;BME280;28495;49.916;14.536;2023-01-28T06:32:01;97438.00;;;-0.66;76.93
42847;BME280;28495;49.916;14.536;2023-01-28T06:37:22;97439.03;;;-0.71;76.86
42847;BME280;28495;49.916;14.536;2023-01-28T06:42:45;97443.28;;;-0.70;76.88
42847;BME280;28495;49.916;14.536;2023-01-28T06:48:06;97454.38;;;-0.70;76.78
42847;BME280;28495;49.916;14.536;2023-01-28T06:53:28;97458.03;;;-0.77;76.90
42847;BME280;28495;49.916;14.536;2023-01-28T06:58:49;97464.00;;;-0.77;77.32
42847;BME280;28495;49.916;14.536;2023-01-28T07:04:10;97462.94;;;-0.71;77.27
42847;BME280;28495;49.916;14.536;2023-01-28T07:09:31;97466.44;;;-0.73;77.32
42847;BME280;28495;49.916;14.536;2023-01-28T07:14:52;97477.63;;;-0.76;76.89
42847;BME280;28495;49.916;14.536;2023-01-28T07:20:14;97478.59;;;-0.79;77.00
42847;BME280;28495;49.916;14.536;2023-01-28T07:25:35;97486.19;;;-0.77;76.96
42847;BME280;28495;49.916;14.536;2023-01-28T07:30:56;97487.00;;;-0.75;76.97
42847;BME280;28495;49.916;14.536;2023-01-28T07:36:17;97487.78;;;-0.73;77.10
42847;BME280;28495;49.916;14.536;2023-01-28T07:41:38;97497.41;;;-0.80;76.77
42847;BME280;28495;49.916;14.536;2023-01-28T07:47:00;97497.34;;;-0.78;77.12
42847;BME280;28495;49.916;14.536;2023-01-28T07:52:21;97500.78;;;-0.79;76.83
42847;BME280;28495;49.916;14.536;2023-01-28T07:57:53;97497.50;;;-0.83;76.96
42847;BME280;28495;49.916;14.536;2023-01-28T08:03:15;97510.13;;;-0.78;77.25
42847;BME280;28495;49.916;14.536;2023-01-28T08:08:36;97512.44;;;-0.70;76.96
42847;BME280;28495;49.916;14.536;2023-01-28T08:13:56;97519.06;;;-0.65;77.21
42847;BME280;28495;49.916;14.536;2023-01-28T08:19:17;97528.53;;;-0.67;76.84
42847;BME280;28495;49.916;14.536;2023-01-28T08:24:41;97529.59;;;-0.72;76.92
42847;BME280;28495;49.916;14.536;2023-01-28T08:30:02;97536.69;;;-0.81;76.64
42847;BME280;28495;49.916;14.536;2023-01-28T08:35:24;97535.84;;;-0.81;76.53
42847;BME280;28495;49.916;14.536;2023-01-28T08:40:46;97539.50;;;-0.88;76.38
42847;BME280;28495;49.916;14.536;2023-01-28T08:46:07;97540.66;;;-0.97;76.48
42847;BME280;28495;49.916;14.536;2023-01-28T08:51:28;97548.38;;;-0.99;76.63
42847;BME280;28495;49.916;14.536;2023-01-28T08:56:49;97548.47;;;-1.02;76.82
42847;BME280;28495;49.916;14.536;2023-01-28T09:02:14;97548.41;;;-1.00;76.32
42847;BME280;28495;49.916;14.536;2023-01-28T09:07:49;97556.19;;;-1.03;76.76
42847;BME280;28495;49.916;14.536;2023-01-28T09:13:13;97562.97;;;-1.01;76.50
42847;BME280;28495;49.916;14.536;2023-01-28T09:18:34;97565.59;;;-1.04;76.22
42847;BME280;28495;49.916;14.536;2023-01-28T09:23:55;97570.09;;;-1.11;76.46
42847;BME280;28495;49.916;14.536;2023-01-28T09:29:18;97572.72;;;-1.14;76.41
42847;BME280;28495;49.916;14.536;2023-01-28T09:34:38;97574.19;;;-1.05;76.98
42847;BME280;28495;49.916;14.536;2023-01-28T09:39:59;97579.84;;;-0.95;77.04
42847;BME280;28495;49.916;14.536;2023-01-28T09:50:52;97580.00;;;-1.00;76.59
42847;BME280;28495;49.916;14.536;2023-01-28T09:56:29;97585.25;;;-1.04;76.17
42847;BME280;28495;49.916;14.536;2023-01-28T10:02:01;97585.28;;;-1.06;76.60
42847;BME280;28495;49.916;14.536;2023-01-28T10:08:01;97587.13;;;-1.10;76.34
42847;BME280;28495;49.916;14.536;2023-01-28T10:19:03;97573.06;;;-0.98;76.27
42847;BME280;28495;49.916;14.536;2023-01-28T10:24:34;97583.56;;;-1.05;76.21
42847;BME280;28495;49.916;14.536;2023-01-28T10:29:58;97580.97;;;-1.04;76.22
42847;BME280;28495;49.916;14.536;2023-01-28T10:35:20;97579.94;;;-0.98;76.51
42847;BME280;28495;49.916;14.536;2023-01-28T10:40:42;97578.19;;;-0.98;77.02
42847;BME280;28495;49.916;14.536;2023-01-28T10:46:11;97586.00;;;-1.01;76.50
42847;BME280;28495;49.916;14.536;2023-01-28T10:51:37;97585.00;;;-0.97;76.13
42847;BME280;28495;49.916;14.536;2023-01-28T10:57:01;97580.00;;;-1.00;76.27
42847;BME280;28495;49.916;14.536;2023-01-28T11:02:30;97586.97;;;-1.05;76.51
42847;BME280;28495;49.916;14.536;2023-01-28T11:13:26;97599.22;;;-1.15;76.47
42847;BME280;28495;49.916;14.536;2023-01-28T11:19:02;97597.50;;;-1.14;76.19
42847;BME280;28495;49.916;14.536;2023-01-28T11:24:28;97602.63;;;-1.14;76.47
42847;BME280;28495;49.916;14.536;2023-01-28T11:29:50;97597.50;;;-1.14;76.35
42847;BME280;28495;49.916;14.536;2023-01-28T11:35:24;97601.06;;;-1.20;76.08
42847;BME280;28495;49.916;14.536;2023-01-28T11:41:05;97612.31;;;-1.24;75.96
42847;BME280;28495;49.916;14.536;2023-01-28T12:03:22;97620.16;;;-1.02;75.83
42847;BME280;28495;49.916;14.536;2023-01-28T12:25:50;97612.63;;;-1.35;75.82
42847;BME280;28495;49.916;14.536;2023-01-28T12:43:56;97610.94;;;-1.36;75.08
42847;BME280;28495;49.916;14.536;2023-01-28T12:49:03;97605.47;;;-1.54;75.40
42847;BME280;28495;49.916;14.536;2023-01-28T13:00:25;97622.81;;;-1.63;75.23
42847;BME280;28495;49.916;14.536;2023-01-28T13:06:12;97617.88;;;-1.70;75.62
42847;BME280;28495;49.916;14.536;2023-01-28T13:11:35;97623.69;;;-1.64;75.25
42847;BME280;28495;49.916;14.536;2023-01-28T13:17:25;97623.59;;;-1.61;75.13
42847;BME280;28495;49.916;14.536;2023-01-28T13:22:46;97625.41;;;-1.65;75.15
42847;BME280;28495;49.916;14.536;2023-01-28T13:28:24;97629.00;;;-1.71;74.93
42847;BME280;28495;49.916;14.536;2023-01-28T13:39:23;97637.31;;;-1.95;74.61
42847;BME280;28495;49.916;14.536;2023-01-28T13:44:45;97632.09;;;-1.91;74.74
42847;BME280;28495;49.916;14.536;2023-01-28T13:50:12;97637.81;;;-1.82;75.00
42847;BME280;28495;49.916;14.536;2023-01-28T13:55:38;97638.63;;;-1.80;74.52
42847;BME280;28495;49.916;14.536;2023-01-28T14:01:44;97646.25;;;-1.79;74.82
42847;BME280;28495;49.916;14.536;2023-01-28T14:19:21;97661.31;;;-2.00;74.71
42847;BME280;28495;49.916;14.536;2023-01-28T14:24:46;97660.63;;;-2.06;74.24
42847;BME280;28495;49.916;14.536;2023-01-28T14:35:37;97666.75;;;-2.12;74.05
42847;BME280;28495;49.916;14.536;2023-01-28T14:40:59;97687.47;;;-2.24;74.45
42847;BME280;28495;49.916;14.536;2023-01-28T14:46:30;97686.66;;;-2.26;73.76
42847;BME280;28495;49.916;14.536;2023-01-28T14:52:18;97686.03;;;-2.35;74.42
42847;BME280;28495;49.916;14.536;2023-01-28T14:57:47;97679.09;;;-2.30;73.90
42847;BME280;28495;49.916;14.536;2023-01-28T15:03:16;97691.00;;;-2.28;74.08
42847;BME280;28495;49.916;14.536;2023-01-28T15:08:44;97701.31;;;-2.33;74.22
42847;BME280;28495;49.916;14.536;2023-01-28T15:14:12;97704.84;;;-2.39;73.47
42847;BME280;28495;49.916;14.536;2023-01-28T15:19:36;97721.09;;;-2.05;74.04
42847;BME280;28495;49.916;14.536;2023-01-28T15:24:57;97725.91;;;-2.27;74.10
42847;BME280;28495;49.916;14.536;2023-01-28T15:30:27;97733.00;;;-2.40;73.67
42847;BME280;28495;49.916;14.536;2023-01-28T15:35:50;97738.41;;;-2.54;73.64
42847;BME280;28495;49.916;14.536;2023-01-28T15:41:11;97736.88;;;-2.62;73.44
42847;BME280;28495;49.916;14.536;2023-01-28T15:46:32;97746.34;;;-2.67;73.17
42847;BME280;28495;49.916;14.536;2023-01-28T15:51:53;97754.22;;;-2.76;73.56
42847;BME280;28495;49.916;14.536;2023-01-28T15:57:19;97768.69;;;-2.75;73.23
42847;BME280;28495;49.916;14.536;2023-01-28T16:02:51;97771.16;;;-2.72;73.54
42847;BME280;28495;49.916;14.536;2023-01-28T16:08:23;97773.69;;;-2.70;73.21
42847;BME280;28495;49.916;14.536;2023-01-28T16:13:46;97788.09;;;-2.68;73.64
42847;BME280;28495;49.916;14.536;2023-01-28T16:19:07;97789.00;;;-2.70;73.56
42847;BME280;28495;49.916;14.536;2023-01-28T16:24:30;97788.09;;;-2.68;72.90
42847;BME280;28495;49.916;14.536;2023-01-28T16:29:52;97796.63;;;-2.69;72.97
42847;BME280;28495;49.916;14.536;2023-01-28T16:35:19;97797.59;;;-2.74;72.42
42847;BME280;28495;49.916;14.536;2023-01-28T16:40:42;97808.00;;;-2.84;72.47
42847;BME280;28495;49.916;14.536;2023-01-28T16:46:03;97808.06;;;-2.87;72.96
42847;BME280;28495;49.916;14.536;2023-01-28T16:51:29;97806.34;;;-2.86;73.31
42847;BME280;28495;49.916;14.536;2023-01-28T16:56:50;97797.81;;;-2.85;72.36
42847;BME280;28495;49.916;14.536;2023-01-28T17:02:13;97810.34;;;-2.74;73.16
42847;BME280;28495;49.916;14.536;2023-01-28T17:07:34;97817.09;;;-2.70;73.19
42847;BME280;28495;49.916;14.536;2023-01-28T17:12:55;97816.44;;;-2.80;72.85
42847;BME280;28495;49.916;14.536;2023-01-28T17:18:18;97819.69;;;-2.73;72.54
42847;BME280;28495;49.916;14.536;2023-01-28T17:23:39;97807.34;;;-2.53;72.80
42847;BME280;28495;49.916;14.536;2023-01-28T17:29:03;97817.91;;;-2.29;73.39
42847;BME280;28495;49.916;14.536;2023-01-28T17:34:26;97823.66;;;-2.19;72.45
42847;BME280;28495;49.916;14.536;2023-01-28T17:39:46;97821.03;;;-2.16;72.01
42847;BME280;28495;49.916;14.536;2023-01-28T17:45:08;97814.16;;;-2.14;72.58
42847;BME280;28495;49.916;14.536;2023-01-28T17:50:29;97809.88;;;-2.13;72.19
42847;BME280;28495;49.916;14.536;2023-01-28T17:55:50;97811.13;;;-1.94;72.54
42847;BME280;28495;49.916;14.536;2023-01-28T18:01:11;97811.06;;;-1.91;72.45
42847;BME280;28495;49.916;14.536;2023-01-28T18:06:33;97818.72;;;-1.91;72.40
42847;BME280;28495;49.916;14.536;2023-01-28T18:11:55;97815.06;;;-1.80;71.99
42847;BME280;28495;49.916;14.536;2023-01-28T18:17:16;97820.31;;;-1.85;72.21
42847;BME280;28495;49.916;14.536;2023-01-28T18:22:41;97822.69;;;-1.79;72.11
42847;BME280;28495;49.916;14.536;2023-01-28T18:28:02;97824.91;;;-1.65;72.04
42847;BME280;28495;49.916;14.536;2023-01-28T18:33:24;97827.72;;;-1.76;71.45
42847;BME280;28495;49.916;14.536;2023-01-28T18:38:45;97833.22;;;-1.91;70.86
42847;BME280;28495;49.916;14.536;2023-01-28T18:44:08;97851.66;;;-2.15;71.69
42847;BME280;28495;49.916;14.536;2023-01-28T18:49:29;97853.19;;;-2.07;71.94
42847;BME280;28495;49.916;14.536;2023-01-28T18:54:50;97856.22;;;-1.90;72.77
42847;BME280;28495;49.916;14.536;2023-01-28T19:00:11;97854.81;;;-1.67;71.29
42847;BME280;28495;49.916;14.536;2023-01-28T19:05:37;97863.66;;;-2.18;70.72
42847;BME280;28495;49.916;14.536;2023-01-28T19:10:58;97864.41;;;-2.13;71.27
42847;BME280;28495;49.916;14.536;2023-01-28T19:16:20;97868.94;;;-2.26;71.46
42847;BME280;28495;49.916;14.536;2023-01-28T19:21:41;97876.00;;;-2.39;70.80
42847;BME280;28495;49.916;14.536;2023-01-28T19:27:02;97884.09;;;-2.57;70.43
42847;BME280;28495;49.916;14.536;2023-01-28T19:32:23;97884.28;;;-2.68;70.44
42847;BME280;28495;49.916;14.536;2023-01-28T19:37:45;97887.72;;;-2.69;70.98
42847;BME280;28495;49.916;14.536;2023-01-28T19:43:06;97890.13;;;-2.63;71.00
42847;BME280;28495;49.916;14.536;2023-01-28T19:48:28;97889.34;;;-2.65;70.78
42847;BME280;28495;49.916;14.536;2023-01-28T19:53:51;97889.25;;;-2.62;71.32
42847;BME280;28495;49.916;14.536;2023-01-28T19:59:12;97887.66;;;-2.66;71.21
42847;BME280;28495;49.916;14.536;2023-01-28T20:04:34;97899.53;;;-2.64;70.84
42847;BME280;28495;49.916;14.536;2023-01-28T20:09:55;97903.56;;;-2.53;70.71
42847;BME280;28495;49.916;14.536;2023-01-28T20:15:16;97906.88;;;-2.48;71.28
42847;BME280;28495;49.916;14.536;2023-01-28T20:20:37;97909.88;;;-2.29;71.39
42847;BME280;28495;49.916;14.536;2023-01-28T20:25:58;97910.97;;;-2.39;70.22
42847;BME280;28495;49.916;14.536;2023-01-28T20:31:22;97905.28;;;-2.54;70.91
42847;BME280;28495;49.916;14.536;2023-01-28T20:36:43;97914.69;;;-2.56;70.99
42847;BME280;28495;49.916;14.536;2023-01-28T20:42:06;97925.94;;;-2.65;70.66
42847;BME280;28495;49.916;14.536;2023-01-28T20:47:30;97926.03;;;-2.71;70.66
42847;BME280;28495;49.916;14.536;2023-01-28T20:52:51;97925.88;;;-2.63;70.74
42847;BME280;28495;49.916;14.536;2023-01-28T20:58:12;97914.84;;;-2.64;70.40
42847;BME280;28495;49.916;14.536;2023-01-28T21:03:33;97934.50;;;-2.67;70.65
42847;BME280;28495;49.916;14.536;2023-01-28T21:08:53;97918.97;;;-2.58;70.82
42847;BME280;28495;49.916;14.536;2023-01-28T21:14:14;97914.22;;;-2.75;70.28
42847;BME280;28495;49.916;14.536;2023-01-28T21:19:36;97923.75;;;-2.85;70.59
42847;BME280;28495;49.916;14.536;2023-01-28T21:24:57;97928.69;;;-2.76;70.70
42847;BME280;28495;49.916;14.536;2023-01-28T21:30:18;97934.09;;;-2.93;70.53
42847;BME280;28495;49.916;14.536;2023-01-28T21:35:41;97928.94;;;-2.89;70.67
42847;BME280;28495;49.916;14.536;2023-01-28T21:41:05;97940.13;;;-2.97;70.20
42847;BME280;28495;49.916;14.536;2023-01-28T21:46:31;97929.63;;;-2.81;70.74
42847;BME280;28495;49.916;14.536;2023-01-28T21:51:52;97938.22;;;-2.85;70.77
42847;BME280;28495;49.916;14.536;2023-01-28T21:57:12;97926.91;;;-2.72;70.65
42847;BME280;28495;49.916;14.536;2023-01-28T22:02:34;97935.19;;;-2.59;70.89
42847;BME280;28495;49.916;14.536;2023-01-28T22:07:56;97933.78;;;-2.74;70.05
42847;BME280;28495;49.916;14.536;2023-01-28T22:13:17;97934.56;;;-2.70;70.34
42847;BME280;28495;49.916;14.536;2023-01-28T22:18:38;97949.09;;;-2.74;70.53
42847;BME280;28495;49.916;14.536;2023-01-28T22:24:00;97948.19;;;-2.71;70.97
42847;BME280;28495;49.916;14.536;2023-01-28T22:29:21;97943.97;;;-2.30;71.30
42847;BME280;28495;49.916;14.536;2023-01-28T22:34:43;97944.03;;;-2.33;70.50
42847;BME280;28495;49.916;14.536;2023-01-28T22:40:06;97942.22;;;-2.28;70.73
42847;BME280;28495;49.916;14.536;2023-01-28T22:45:27;97943.84;;;-2.24;71.02
42847;BME280;28495;49.916;14.536;2023-01-28T22:50:48;97948.97;;;-2.24;70.42
42847;BME280;28495;49.916;14.536;2023-01-28T22:56:09;97930.63;;;-2.43;70.12
42847;BME280;28495;49.916;14.536;2023-01-28T23:01:30;97924.13;;;-2.59;69.82
42847;BME280;28495;49.916;14.536;2023-01-28T23:06:52;97932.81;;;-2.68;70.74
42847;BME280;28495;49.916;14.536;2023-01-28T23:12:13;97929.09;;;-2.52;70.30
42847;BME280;28495;49.916;14.536;2023-01-28T23:17:34;97915.66;;;-2.62;69.93
42847;BME280;28495;49.916;14.536;2023-01-28T23:23:15;97917.28;;;-2.57;70.57
42847;BME280;28495;49.916;14.536;2023-01-28T23:28:55;97914.34;;;-2.39;70.51
42847;BME280;28495;49.916;14.536;2023-01-28T23:34:16;97900.84;;;-2.46;70.15
42847;BME280;28495;49.916;14.536;2023-01-28T23:39:37;97916.28;;;-2.50;70.38
42847;BME280;28495;49.916;14.536;2023-01-28T23:44:58;97903.59;;;-2.55;70.59
42847;BME280;28495;49.916;14.536;2023-01-28T23:50:19;97918.88;;;-2.52;70.42
42847;BME280;28495;49.916;14.536;2023-01-28T23:55:39;97923.03;;;-2.48;70.33
